Time;durP1;ratioP1;P1;durP2;ratioP2;P2;SDS_P1;SDS_P2;PMS_P1;PMS_P2;Temp;Humidity;BMP_temperature;BMP_pressure;BME280_temperature;BME280_humidity;BME280_pressure;Samples;Min_cycle;Max_cycle;Signal;HPM_P1;HPM_P2
2021/05/14 00:02:31;;;;;;;10.35;7.28;;;;;;;17.39;100.00;97496.19;4211778;82;28511;-84
2021/05/14 00:08:32;;;;;;;11.35;7.87;;;;;;;17.49;100.00;97496.45;4257365;82;28474;-86
2021/05/14 00:14:34;;;;;;;12.53;7.67;;;;;;;17.33;100.00;97498.78;4261419;82;28547;-84
2021/05/14 00:20:35;;;;;;;13.98;8.40;;;;;;;17.36;100.00;97501.68;4257739;82;28519;-86
2021/05/14 00:26:36;;;;;;;12.28;8.60;;;;;;;17.44;100.00;97506.89;4325337;80;28520;-85
2021/05/14 00:32:38;;;;;;;15.32;8.40;;;;;;;17.24;100.00;97500.12;4348838;80;28597;-84
2021/05/14 00:38:40;;;;;;;12.73;8.28;;;;;;;17.18;100.00;97492.67;4316414;80;28477;-86
2021/05/14 00:44:45;;;;;;;13.53;8.98;;;;;;;17.36;100.00;97488.09;4317884;80;28555;-84
2021/05/14 00:50:46;;;;;;;13.53;8.05;;;;;;;17.22;100.00;97496.34;4328479;80;28479;-86
2021/05/14 00:56:49;;;;;;;12.65;7.80;;;;;;;17.23;100.00;97493.91;4346468;81;28508;-83
2021/05/14 01:02:52;;;;;;;12.60;8.23;;;;;;;17.24;100.00;97495.50;4354916;80;28502;-85
2021/05/14 01:09:01;;;;;;;12.75;7.95;;;;;;;17.20;100.00;97491.79;4342169;80;28506;-85
2021/05/14 01:15:03;;;;;;;10.48;7.30;;;;;;;17.27;100.00;97492.15;4310364;80;28478;-85
2021/05/14 01:21:05;;;;;;;9.98;7.25;;;;;;;17.09;100.00;97486.39;4300031;81;28497;-84
2021/05/14 01:27:06;;;;;;;12.00;7.80;;;;;;;17.22;100.00;97494.20;4304093;81;28466;-85
2021/05/14 01:33:07;;;;;;;11.30;7.47;;;;;;;17.08;100.00;97488.32;4321988;81;28545;-84
2021/05/14 01:39:12;;;;;;;11.05;7.08;;;;;;;17.09;100.00;97491.82;4323255;81;28504;-85
2021/05/14 01:45:15;;;;;;;11.50;7.40;;;;;;;16.99;100.00;97490.16;4141389;84;28495;-84
2021/05/14 01:51:19;;;;;;;9.55;7.03;;;;;;;17.03;100.00;97492.52;4215869;83;28497;-83
2021/05/14 01:57:20;;;;;;;10.85;7.20;;;;;;;17.09;100.00;97493.18;4222302;83;28487;-83
2021/05/14 02:03:21;;;;;;;10.58;6.75;;;;;;;17.11;100.00;97496.38;4176586;84;28501;-84
2021/05/14 02:09:23;;;;;;;10.32;6.33;;;;;;;17.14;100.00;97490.34;4284427;82;28542;-84
2021/05/14 02:15:24;;;;;;;9.88;7.00;;;;;;;17.20;100.00;97498.58;4284716;82;28476;-83
2021/05/14 02:21:26;;;;;;;9.10;6.12;;;;;;;17.12;100.00;97502.86;4284547;82;28563;-83
2021/05/14 02:27:27;;;;;;;9.35;6.42;;;;;;;17.23;100.00;97507.48;4284470;82;28552;-84
2021/05/14 02:33:29;;;;;;;11.15;7.08;;;;;;;16.97;100.00;97514.89;4284650;82;28468;-84
2021/05/14 02:39:30;;;;;;;11.35;7.35;;;;;;;16.94;100.00;97509.28;4284323;82;28494;-84
2021/05/14 02:45:32;;;;;;;9.83;6.62;;;;;;;17.00;100.00;97511.58;4284464;82;28515;-85
2021/05/14 02:51:33;;;;;;;9.88;6.75;;;;;;;17.10;100.00;97507.00;4305383;82;28469;-86
2021/05/14 02:57:35;;;;;;;10.25;7.08;;;;;;;17.10;100.00;97506.45;4284431;82;28571;-85
2021/05/14 03:03:37;;;;;;;11.68;7.90;;;;;;;17.02;100.00;97510.46;4293546;81;28488;-85
2021/05/14 03:09:38;;;;;;;10.10;7.30;;;;;;;16.77;100.00;97518.12;4176403;84;28485;-85
2021/05/14 03:15:39;;;;;;;10.82;7.22;;;;;;;17.00;100.00;97517.00;4174104;85;28498;-84
2021/05/14 03:21:41;;;;;;;11.95;8.18;;;;;;;17.08;100.00;97520.09;4211622;84;28534;-84
2021/05/14 03:27:42;;;;;;;14.50;9.80;;;;;;;17.08;100.00;97523.62;4202924;84;28501;-84
2021/05/14 03:33:44;;;;;;;14.73;9.83;;;;;;;16.92;100.00;97521.01;4200532;83;28500;-84
2021/05/14 03:39:50;;;;;;;17.25;10.95;;;;;;;16.98;100.00;97523.85;4230055;83;28499;-84
2021/05/14 03:45:48;;;;;;;19.57;12.68;;;;;;;16.96;100.00;97528.77;4231849;83;28546;-84
2021/05/14 03:51:50;;;;;;;18.48;12.53;;;;;;;16.79;100.00;97535.70;4243769;83;28496;-82
2021/05/14 03:57:51;;;;;;;19.45;13.08;;;;;;;16.73;100.00;97539.09;4210908;83;28488;-84
2021/05/14 04:03:53;;;;;;;25.08;15.75;;;;;;;16.72;100.00;97537.50;4213739;83;28574;-84
2021/05/14 04:10:13;;;;;;;27.32;15.80;;;;;;;16.94;100.00;97547.28;4241181;83;28524;-83
2021/05/14 04:16:09;;;;;;;28.05;17.35;;;;;;;16.87;100.00;97547.72;4240081;83;28542;-84
2021/05/14 04:22:10;;;;;;;26.27;17.10;;;;;;;16.70;100.00;97556.55;4220905;83;28612;-84
2021/05/14 04:28:11;;;;;;;27.35;16.42;;;;;;;16.68;100.00;97555.48;4252186;82;28472;-83
2021/05/14 04:34:16;;;;;;;28.47;17.32;;;;;;;16.83;100.00;97563.03;4250520;82;28506;-84
2021/05/14 04:40:17;;;;;;;27.98;17.45;;;;;;;16.85;100.00;97564.88;4241473;83;28493;-84
2021/05/14 04:46:18;;;;;;;28.02;17.30;;;;;;;16.80;100.00;97565.80;4220939;83;28620;-85
2021/05/14 04:52:22;;;;;;;29.55;17.27;;;;;;;16.73;100.00;97571.66;4250716;83;28491;-85
2021/05/14 04:58:24;;;;;;;28.98;17.65;;;;;;;16.55;100.00;97565.84;4248463;83;28585;-83
2021/05/14 05:04:25;;;;;;;29.42;17.25;;;;;;;16.50;100.00;97575.44;4244765;82;28490;-84
2021/05/14 05:10:26;;;;;;;27.55;16.20;;;;;;;16.67;100.00;97581.02;4263713;82;28568;-84
2021/05/14 05:16:28;;;;;;;35.55;16.57;;;;;;;16.81;100.00;97575.55;4255965;82;28476;-83
2021/05/14 05:22:29;;;;;;;30.37;16.67;;;;;;;16.80;100.00;97576.66;4261026;82;28525;-84
2021/05/14 05:28:32;;;;;;;30.02;17.32;;;;;;;16.97;100.00;97588.19;4314460;81;28477;-84
2021/05/14 05:34:34;;;;;;;25.23;15.08;;;;;;;17.00;100.00;97592.23;4316828;81;28497;-84
2021/05/14 05:40:36;;;;;;;27.95;15.40;;;;;;;16.88;100.00;97600.89;4337764;81;28498;-84
2021/05/14 05:46:37;;;;;;;26.82;16.02;;;;;;;16.96;100.00;97611.02;4312094;81;28500;-84
2021/05/14 05:52:38;;;;;;;30.80;17.07;;;;;;;16.89;100.00;97620.14;4318105;81;28997;-84
2021/05/14 05:58:40;;;;;;;25.55;15.38;;;;;;;16.96;100.00;97630.02;4317135;81;28565;-85
2021/05/14 06:04:41;;;;;;;24.47;14.35;;;;;;;16.92;100.00;97630.41;4318003;81;28521;-85
2021/05/14 06:10:44;;;;;;;27.93;15.93;;;;;;;16.92;100.00;97635.83;4331943;81;28464;-83
2021/05/14 06:16:46;;;;;;;25.57;16.25;;;;;;;16.98;100.00;97644.66;4157835;84;28572;-85
2021/05/14 06:22:47;;;;;;;22.65;12.78;;;;;;;16.90;100.00;97659.74;4154121;84;28555;-85
2021/05/14 06:28:49;;;;;;;27.20;15.38;;;;;;;16.94;100.00;97659.39;4196906;83;28529;-85
2021/05/14 06:34:53;;;;;;;28.47;15.32;;;;;;;16.94;100.00;97666.72;4195784;84;28488;-84
2021/05/14 06:40:54;;;;;;;23.60;14.50;;;;;;;16.98;100.00;97671.23;4187295;84;28515;-84
2021/05/14 06:46:56;;;;;;;24.45;14.90;;;;;;;17.06;100.00;97678.44;4248191;83;28459;-84
2021/05/14 06:52:57;;;;;;;24.92;14.87;;;;;;;16.78;100.00;97688.80;4262465;83;28588;-84
2021/05/14 06:59:00;;;;;;;23.77;13.78;;;;;;;16.58;100.00;97694.09;4242794;83;28618;-82
2021/05/14 07:05:01;;;;;;;25.52;14.83;;;;;;;16.68;100.00;97694.45;4226260;83;28614;-84
2021/05/14 07:11:03;;;;;;;27.98;14.75;;;;;;;16.36;100.00;97703.77;4251680;83;28506;-83
2021/05/14 07:17:05;;;;;;;25.45;14.38;;;;;;;16.59;100.00;97714.69;4232825;83;28554;-82
2021/05/14 07:23:06;;;;;;;29.25;15.30;;;;;;;16.69;100.00;97721.83;4240907;83;28491;-83
2021/05/14 07:29:08;;;;;;;26.65;15.53;;;;;;;16.78;100.00;97725.97;4238399;83;28626;-84
2021/05/14 07:35:10;;;;;;;24.77;14.20;;;;;;;16.79;100.00;97729.75;4261617;83;28543;-83
2021/05/14 07:41:12;;;;;;;24.25;15.35;;;;;;;16.95;100.00;97732.94;4253706;83;28597;-86
2021/05/14 07:47:13;;;;;;;28.77;17.52;;;;;;;16.73;100.00;97733.12;4239376;83;28469;-86
2021/05/14 07:53:15;;;;;;;27.10;16.10;;;;;;;16.15;100.00;97735.34;4243701;82;28982;-86
2021/05/14 07:59:16;;;;;;;26.23;15.63;;;;;;;16.42;100.00;97737.01;4255134;83;28461;-86
2021/05/14 08:05:17;;;;;;;30.27;16.85;;;;;;;16.92;100.00;97747.67;4252191;82;28498;-85
2021/05/14 08:11:19;;;;;;;28.75;15.78;;;;;;;16.77;100.00;97755.05;4273754;82;28511;-86
2021/05/14 08:17:20;;;;;;;32.05;18.57;;;;;;;16.88;100.00;97758.33;4262088;82;28518;-86
2021/05/14 08:23:22;;;;;;;31.23;18.50;;;;;;;16.63;100.00;97761.84;4251838;82;28572;-86
2021/05/14 08:29:25;;;;;;;29.40;17.25;;;;;;;17.02;100.00;97767.84;4257870;82;28485;-86
2021/05/14 08:35:26;;;;;;;31.93;18.20;;;;;;;17.41;100.00;97760.17;4267716;82;28488;-86
2021/05/14 08:41:28;;;;;;;33.98;18.77;;;;;;;17.46;100.00;97768.22;4344269;81;28500;-85
2021/05/14 08:47:31;;;;;;;31.17;18.10;;;;;;;17.44;100.00;97775.06;4313994;80;28535;-83
2021/05/14 08:53:33;;;;;;;32.70;17.42;;;;;;;17.68;100.00;97771.48;4329278;80;28499;-83
2021/05/14 08:59:34;;;;;;;28.67;17.23;;;;;;;17.98;100.00;97774.55;4323048;81;28651;-85
2021/05/14 09:05:36;;;;;;;30.37;18.05;;;;;;;18.33;100.00;97774.53;4327709;80;28492;-85
2021/05/14 09:11:51;;;;;;;30.12;16.67;;;;;;;18.31;100.00;97779.45;4293604;82;28555;-87
2021/05/14 09:18:17;;;;;;;31.50;18.45;;;;;;;18.65;100.00;97779.37;4288968;82;28504;-85
2021/05/14 09:24:28;;;;;;;33.10;17.70;;;;;;;18.75;100.00;97784.52;4323049;82;28553;-86
2021/05/14 09:30:30;;;;;;;26.15;16.70;;;;;;;19.39;100.00;97796.02;4310452;82;28536;-86
2021/05/14 09:36:34;;;;;;;28.15;16.95;;;;;;;19.76;100.00;97799.77;4293864;82;28496;-86
2021/05/14 09:42:35;;;;;;;28.35;17.12;;;;;;;19.72;100.00;97809.72;4314319;82;28496;-85
2021/05/14 09:48:57;;;;;;;24.00;14.63;;;;;;;19.49;100.00;97813.98;4299263;82;28586;-86
2021/05/14 09:54:59;;;;;;;27.67;18.42;;;;;;;20.16;100.00;97811.84;4285158;82;28480;-84
2021/05/14 10:01:00;;;;;;;25.95;17.37;;;;;;;20.28;97.65;97822.64;4313617;82;28530;-85
2021/05/14 10:07:01;;;;;;;24.57;16.85;;;;;;;20.64;95.31;97815.13;4325922;81;28504;-86
2021/05/14 10:13:03;;;;;;;22.87;15.78;;;;;;;20.95;91.48;97814.05;4332006;80;28557;-85
2021/05/14 10:19:05;;;;;;;24.92;16.40;;;;;;;21.28;92.15;97813.35;4354786;80;28506;-86
2021/05/14 10:25:08;;;;;;;24.80;16.27;;;;;;;21.02;86.14;97817.85;4171915;84;28482;-85
2021/05/14 10:31:18;;;;;;;22.17;16.15;;;;;;;21.10;84.57;97818.95;4232455;83;28519;-86
2021/05/14 10:37:49;;;;;;;25.52;15.50;;;;;;;21.23;80.65;97813.56;4160669;84;28504;-87
2021/05/14 10:44:08;;;;;;;20.17;14.47;;;;;;;21.34;79.23;97812.59;4173291;84;28615;-85
2021/05/14 10:50:37;;;;;;;24.12;16.60;;;;;;;21.88;73.70;97813.80;4184245;84;28520;-85
2021/05/14 10:56:49;;;;;;;23.95;16.35;;;;;;;22.15;73.16;97819.24;4164671;84;28592;-84
2021/05/14 11:03:15;;;;;;;18.73;14.03;;;;;;;22.53;68.39;97820.92;4165344;84;28503;-85
2021/05/14 11:09:18;;;;;;;20.15;14.43;;;;;;;22.42;68.83;97820.55;4189141;84;28544;-83
2021/05/14 11:15:35;;;;;;;21.90;14.83;;;;;;;22.18;64.77;97828.69;4179085;84;28513;-86
2021/05/14 11:21:59;;;;;;;19.20;13.70;;;;;;;22.18;62.32;97830.88;4172194;84;28543;-85
2021/05/14 11:28:01;;;;;;;17.15;11.90;;;;;;;21.78;66.53;97847.27;4185393;84;28501;-86
2021/05/14 11:34:07;;;;;;;15.85;11.48;;;;;;;22.64;65.06;97834.16;4187251;84;28551;-86
2021/05/14 11:40:29;;;;;;;14.63;10.70;;;;;;;22.58;66.81;97834.18;4179000;84;28549;-86
2021/05/14 11:46:33;;;;;;;15.25;11.28;;;;;;;22.35;62.99;97844.94;4189764;84;28504;-86
2021/05/14 11:52:39;;;;;;;14.65;10.40;;;;;;;22.41;61.79;97846.89;4189819;84;28482;-86
2021/05/14 11:58:43;;;;;;;16.20;10.88;;;;;;;21.83;62.58;97847.05;4178053;83;28497;-87
2021/05/14 12:04:51;;;;;;;13.43;9.70;;;;;;;21.63;68.78;97851.94;4196022;82;28496;-85
2021/05/14 12:11:03;;;;;;;13.80;9.20;;;;;;;21.02;74.08;97864.88;4270694;82;28532;-86
2021/05/14 12:17:05;;;;;;;12.85;8.60;;;;;;;21.17;68.48;97873.86;4288903;82;28480;-85
2021/05/14 12:23:12;;;;;;;11.65;8.05;;;;;;;21.65;68.08;97896.97;4269190;82;28492;-85
2021/05/14 12:29:26;;;;;;;9.05;7.08;;;;;;;20.80;69.83;97880.92;4268147;82;28661;-84
2021/05/14 12:35:27;;;;;;;9.98;7.15;;;;;;;20.95;72.74;97896.81;4273638;82;28512;-85
2021/05/14 12:41:36;;;;;;;9.98;6.20;;;;;;;21.26;70.93;97892.97;4271071;82;28488;-84
2021/05/14 12:47:39;;;;;;;8.93;6.78;;;;;;;21.09;72.31;97890.31;4274409;82;28486;-84
2021/05/14 12:53:41;;;;;;;7.90;5.45;;;;;;;21.22;67.49;97899.42;4252565;82;28584;-84
2021/05/14 12:59:50;;;;;;;10.03;5.72;;;;;;;21.18;72.24;97897.91;4266859;82;28515;-83
2021/05/14 13:05:54;;;;;;;9.23;6.47;;;;;;;21.77;68.17;97905.05;4224864;84;28564;-84
2021/05/14 13:11:56;;;;;;;9.55;6.42;;;;;;;20.96;70.93;97918.91;4165402;85;28491;-83
2021/05/14 13:17:57;;;;;;;7.22;5.65;;;;;;;20.19;84.56;97918.17;4237905;84;28504;-84
2021/05/14 13:23:59;;;;;;;8.55;5.70;;;;;;;20.00;78.62;97919.30;4253533;83;28557;-84
2021/05/14 13:30:00;;;;;;;11.18;6.03;;;;;;;19.71;86.98;97923.42;4171543;83;28505;-85
2021/05/14 13:36:02;;;;;;;7.37;5.10;;;;;;;20.78;82.66;97929.62;4189011;84;28597;-85
2021/05/14 13:42:05;;;;;;;5.70;4.45;;;;;;;20.11;80.93;97944.35;4179482;84;28536;-84
2021/05/14 13:48:07;;;;;;;5.90;3.80;;;;;;;20.07;74.95;97951.55;4173100;83;28540;-85
2021/05/14 13:54:09;;;;;;;6.05;3.25;;;;;;;20.21;77.89;97954.12;4171996;83;28539;-85
2021/05/14 14:00:11;;;;;;;8.93;6.15;;;;;;;20.25;75.50;97961.90;4173320;83;28499;-83
2021/05/14 14:06:15;;;;;;;12.75;8.35;;;;;;;20.14;70.50;97978.35;4186557;83;28588;-83
2021/05/14 14:12:17;;;;;;;11.93;7.85;;;;;;;20.15;73.03;97988.14;4191506;84;28485;-83
2021/05/14 14:18:18;;;;;;;11.68;8.03;;;;;;;20.34;71.53;97979.08;4190352;84;28655;-83
2021/05/14 14:24:20;;;;;;;15.38;10.03;;;;;;;20.56;68.23;97977.86;4196229;84;28501;-83
2021/05/14 14:30:22;;;;;;;17.35;10.93;;;;;;;20.27;68.97;97984.23;4195705;84;28589;-84
2021/05/14 14:36:24;;;;;;;21.27;12.85;;;;;;;20.83;65.25;97990.36;4190908;84;28506;-84
2021/05/14 14:42:25;;;;;;;22.30;12.93;;;;;;;20.56;67.93;97995.61;4200456;84;28489;-84
2021/05/14 14:48:26;;;;;;;19.32;12.05;;;;;;;20.70;66.04;97988.02;4194507;84;28551;-84
2021/05/14 14:54:28;;;;;;;21.87;13.40;;;;;;;20.03;70.49;98007.31;4190056;83;28512;-83
2021/05/14 15:00:29;;;;;;;22.13;13.20;;;;;;;20.14;72.18;98013.28;4192355;83;28561;-84
2021/05/14 15:06:34;;;;;;;22.73;14.15;;;;;;;19.82;74.16;98015.29;4207009;82;28500;-82
2021/05/14 15:12:35;;;;;;;23.95;14.25;;;;;;;19.46;79.21;98025.83;4268977;82;28545;-83
2021/05/14 15:18:38;;;;;;;20.57;13.00;;;;;;;19.37;82.61;98028.53;4270116;82;28492;-83
2021/05/14 15:24:40;;;;;;;19.90;12.35;;;;;;;18.98;81.62;98034.16;4263299;82;28571;-83
2021/05/14 15:30:43;;;;;;;17.77;11.97;;;;;;;19.28;78.55;98037.23;4275296;82;28532;-85
2021/05/14 15:36:44;;;;;;;21.90;12.50;;;;;;;19.64;73.78;98045.80;4266356;82;28576;-82
2021/05/14 15:42:46;;;;;;;18.73;12.03;;;;;;;19.51;73.59;98043.42;4268738;82;28566;-84
2021/05/14 15:48:48;;;;;;;16.75;11.53;;;;;;;20.43;68.59;98051.42;4267639;82;28563;-83
2021/05/14 15:54:52;;;;;;;16.73;11.57;;;;;;;20.61;67.72;98040.48;4264253;82;28522;-83
2021/05/14 16:00:53;;;;;;;19.60;11.78;;;;;;;20.63;67.70;98038.25;4265415;82;28493;-83
2021/05/14 16:06:54;;;;;;;17.48;12.13;;;;;;;19.76;71.82;98058.27;4261405;82;28575;-84
2021/05/14 16:12:56;;;;;;;17.95;11.22;;;;;;;19.23;76.62;98064.05;4210526;84;28622;-84
2021/05/14 16:18:57;;;;;;;17.73;11.08;;;;;;;19.27;77.00;98064.23;4196203;84;28543;-85
2021/05/14 16:24:58;;;;;;;16.80;10.98;;;;;;;19.17;78.14;98066.11;4191717;84;28513;-84
2021/05/14 16:31:00;;;;;;;15.65;10.10;;;;;;;19.09;81.31;98069.58;4193905;84;28564;-83
2021/05/14 16:37:04;;;;;;;16.50;10.75;;;;;;;19.03;82.74;98072.20;4188208;84;28471;-84
2021/05/14 16:43:07;;;;;;;18.05;11.20;;;;;;;18.84;86.73;98077.25;4194756;84;28510;-85
2021/05/14 16:49:08;;;;;;;13.88;9.18;;;;;;;18.79;91.29;98080.90;4196210;84;28526;-85
2021/05/14 16:55:12;;;;;;;14.53;10.43;;;;;;;18.48;98.10;98084.88;4159013;83;28588;-85
2021/05/14 17:01:13;;;;;;;14.60;10.48;;;;;;;18.72;94.64;98091.41;4188728;84;28527;-85
2021/05/14 17:07:15;;;;;;;13.65;9.15;;;;;;;18.41;99.53;98096.77;4182769;83;28671;-89
2021/05/14 17:13:16;;;;;;;10.60;8.43;;;;;;;18.27;100.00;98104.95;4194712;84;28554;-80
2021/05/14 17:19:18;;;;;;;12.90;7.72;;;;;;;18.11;100.00;98119.67;4187150;84;28536;-85
2021/05/14 17:25:19;;;;;;;8.83;6.83;;;;;;;18.14;100.00;98120.98;4182610;84;28506;-88
2021/05/14 17:31:21;;;;;;;9.68;6.90;;;;;;;18.05;100.00;98135.84;4202443;84;28494;-87
2021/05/14 17:37:22;;;;;;;11.18;6.58;;;;;;;17.82;100.00;98138.42;4203566;83;28517;-84
2021/05/14 17:43:24;;;;;;;9.20;6.90;;;;;;;18.00;100.00;98140.54;4184933;84;28472;-88
2021/05/14 17:49:25;;;;;;;7.35;5.60;;;;;;;17.58;100.00;98147.31;4197213;84;28487;-86
2021/05/14 17:55:26;;;;;;;8.10;6.60;;;;;;;17.03;100.00;98157.72;4188741;84;28537;-85
2021/05/14 18:01:28;;;;;;;8.65;6.35;;;;;;;17.55;100.00;98159.05;4186249;84;28581;-87
2021/05/14 18:07:29;;;;;;;6.70;4.92;;;;;;;17.30;100.00;98163.55;4177336;83;28565;-87
2021/05/14 18:13:30;;;;;;;9.28;4.90;;;;;;;17.26;100.00;98169.58;4336073;80;28561;-88
2021/05/14 18:19:34;;;;;;;7.17;4.35;;;;;;;16.89;100.00;98171.20;4293970;81;28513;-86
2021/05/14 18:25:36;;;;;;;5.78;4.22;;;;;;;16.82;100.00;98180.28;4339077;80;28495;-83
2021/05/14 18:31:37;;;;;;;5.70;4.58;;;;;;;16.66;100.00;98189.98;4186386;84;28561;-88
2021/05/14 18:37:44;;;;;;;5.58;4.58;;;;;;;16.58;100.00;98198.77;4196830;84;28504;-86
2021/05/14 18:43:45;;;;;;;6.75;4.55;;;;;;;16.45;100.00;98209.77;4202685;84;28525;-87
2021/05/14 18:49:46;;;;;;;7.87;5.05;;;;;;;16.12;100.00;98213.69;4191836;84;28558;-87
2021/05/14 18:55:49;;;;;;;8.93;5.78;;;;;;;16.06;100.00;98223.78;4268930;81;28561;-89
2021/05/14 19:01:50;;;;;;;8.45;5.00;;;;;;;16.23;100.00;98236.09;4237700;83;28550;-87
2021/05/14 19:07:52;;;;;;;8.60;4.83;;;;;;;16.14;100.00;98244.02;4270634;81;29013;-85
2021/05/14 19:13:54;;;;;;;7.62;4.92;;;;;;;16.03;100.00;98246.84;4264146;82;28537;-84
2021/05/14 19:19:55;;;;;;;6.37;5.08;;;;;;;16.19;100.00;98266.22;4260561;81;28533;-87
2021/05/14 19:26:17;;;;;;;4.95;3.33;;;;;;;16.16;100.00;98275.75;4187679;83;28579;-83
2021/05/14 19:45:06;;;;;;;8.70;6.12;;;;;;;16.19;100.00;98290.09;4346599;80;28543;-83
2021/05/14 19:50:56;;;;;;;8.33;6.03;;;;;;;16.16;100.00;98294.73;4341540;81;28569;-81
2021/05/14 19:56:57;;;;;;;7.87;6.20;;;;;;;16.16;100.00;98300.95;4332094;80;28523;-85
2021/05/14 20:02:58;;;;;;;7.75;6.35;;;;;;;16.14;100.00;98311.28;4347568;80;28525;-84
2021/05/14 20:09:00;;;;;;;9.85;6.58;;;;;;;16.26;100.00;98314.97;4196150;82;28543;-84
2021/05/14 20:15:02;;;;;;;8.60;7.05;;;;;;;16.29;100.00;98313.57;4328825;81;28591;-84
2021/05/14 20:21:05;;;;;;;11.88;8.50;;;;;;;16.26;100.00;98329.06;4326331;81;28517;-84
2021/05/14 20:27:07;;;;;;;9.90;7.12;;;;;;;16.25;100.00;98331.52;4314267;81;28479;-84
2021/05/14 20:33:08;;;;;;;10.68;7.20;;;;;;;16.22;100.00;98333.45;4336912;81;28574;-84
2021/05/14 20:39:29;;;;;;;10.55;6.67;;;;;;;16.30;100.00;98336.91;4320902;81;28518;-83
2021/05/14 20:45:29;;;;;;;8.95;6.25;;;;;;;16.15;100.00;98346.00;4313990;81;28519;-83
2021/05/14 20:51:31;;;;;;;9.03;7.10;;;;;;;15.97;100.00;98350.20;4326832;81;28579;-84
2021/05/14 20:57:33;;;;;;;10.60;7.60;;;;;;;15.83;100.00;98350.03;4339665;81;28558;-84
2021/05/14 21:03:35;;;;;;;11.90;7.40;;;;;;;15.59;100.00;98354.25;4333508;81;28525;-84
2021/05/14 21:09:36;;;;;;;9.43;6.87;;;;;;;15.68;100.00;98357.16;4329562;81;28537;-84
2021/05/14 21:15:37;;;;;;;8.53;5.87;;;;;;;15.84;100.00;98355.15;4315812;81;28583;-85
2021/05/14 21:21:39;;;;;;;8.65;6.70;;;;;;;15.85;100.00;98349.19;4281385;81;28503;-85
2021/05/14 21:27:40;;;;;;;8.18;6.08;;;;;;;15.85;100.00;98351.34;4330017;81;28492;-84
2021/05/14 21:33:42;;;;;;;6.75;5.30;;;;;;;15.85;100.00;98349.19;4307640;81;28559;-84
2021/05/14 21:39:43;;;;;;;8.18;5.40;;;;;;;15.78;100.00;98354.94;4137687;85;28684;-84
2021/05/14 21:45:45;;;;;;;9.30;5.53;;;;;;;15.67;100.00;98356.90;4151264;85;28580;-85
2021/05/14 21:51:46;;;;;;;8.25;5.67;;;;;;;15.80;100.00;98351.92;4167426;83;28505;-86
2021/05/14 21:57:49;;;;;;;7.22;4.83;;;;;;;15.71;100.00;98359.30;4169073;84;28508;-84
2021/05/14 22:03:50;;;;;;;6.92;5.20;;;;;;;15.86;100.00;98364.36;4178895;84;28580;-85
2021/05/14 22:09:51;;;;;;;8.68;5.15;;;;;;;15.95;100.00;98361.34;4200623;84;28565;-84
2021/05/14 22:15:53;;;;;;;7.92;5.10;;;;;;;15.78;100.00;98369.02;4241883;83;28525;-83
2021/05/14 22:21:54;;;;;;;6.78;4.85;;;;;;;15.84;100.00;98371.41;4199969;83;28484;-83
2021/05/14 22:27:56;;;;;;;8.03;4.87;;;;;;;15.77;100.00;98374.18;4199893;83;28592;-83
2021/05/14 22:33:57;;;;;;;7.92;5.78;;;;;;;15.91;100.00;98375.18;4284711;82;28537;-83
2021/05/14 22:39:58;;;;;;;7.90;5.20;;;;;;;15.81;100.00;98374.69;4284435;82;28492;-83
2021/05/14 22:46:00;;;;;;;7.12;5.03;;;;;;;15.87;100.00;98378.97;4284145;82;28510;-83
2021/05/14 22:52:01;;;;;;;8.63;5.75;;;;;;;15.87;100.00;98378.17;4296147;82;28474;-83
2021/05/14 22:58:03;;;;;;;6.90;5.65;;;;;;;15.89;100.00;98378.16;4293503;82;28559;-83
2021/05/14 23:04:05;;;;;;;9.25;5.65;;;;;;;15.74;100.00;98379.08;4305771;82;28531;-83
2021/05/14 23:10:07;;;;;;;8.45;5.70;;;;;;;15.60;100.00;98383.48;4309246;81;28528;-83
2021/05/14 23:16:09;;;;;;;7.30;5.33;;;;;;;15.71;100.00;98380.19;4325172;81;28517;-83
2021/05/14 23:22:10;;;;;;;8.23;5.58;;;;;;;15.62;100.00;98388.11;4302444;81;28496;-85
2021/05/14 23:28:12;;;;;;;8.25;5.33;;;;;;;15.63;100.00;98389.72;4302459;81;28543;-85
2021/05/14 23:34:14;;;;;;;6.85;5.15;;;;;;;15.63;100.00;98390.25;4323924;81;28546;-83
2021/05/14 23:40:15;;;;;;;7.97;5.62;;;;;;;15.49;100.00;98388.17;4302617;81;28519;-82
2021/05/14 23:46:16;;;;;;;7.03;4.65;;;;;;;15.35;100.00;98381.20;4302490;81;28523;-83
2021/05/14 23:52:19;;;;;;;7.60;5.40;;;;;;;15.30;100.00;98382.56;4317830;81;28497;-83
2021/05/14 23:58:21;;;;;;;8.73;6.22;;;;;;;15.43;100.00;98379.80;4307894;81;28499;-86
